createdAt,value
2019-03-27T00:00:51.924Z,95.96
2019-03-27T00:01:51.979Z,95.75
2019-03-27T00:02:51.886Z,95.96
2019-03-27T00:03:51.892Z,96.17
2019-03-27T00:04:51.867Z,95.75
2019-03-27T00:05:51.933Z,96.06
2019-03-27T00:06:51.844Z,96.48
2019-03-27T00:07:51.918Z,96.58
2019-03-27T00:08:51.820Z,96.17
2019-03-27T00:09:51.831Z,96.37
2019-03-27T00:10:51.814Z,96.37
2019-03-27T00:11:51.843Z,96.37
2019-03-27T00:12:51.776Z,96.27
2019-03-27T00:13:51.856Z,96.37
2019-03-27T00:14:51.755Z,96.27
2019-03-27T00:15:51.796Z,96.31
2019-03-27T00:16:51.735Z,97.35
2019-03-27T00:17:51.784Z,96.73
2019-03-27T00:18:51.711Z,96.98
2019-03-27T00:19:51.800Z,97.25
2019-03-27T00:20:51.701Z,97.29
2019-03-27T00:21:51.707Z,97.50
2019-03-27T00:22:51.666Z,97.29
2019-03-27T00:23:51.720Z,97.14
2019-03-27T00:24:51.650Z,97.29
2019-03-27T00:25:51.661Z,97.81
2019-03-27T00:26:51.623Z,97.56
2019-03-27T00:27:52.620Z,98.02
2019-03-27T00:28:51.601Z,98.12
2019-03-27T00:29:52.599Z,98.12
2019-03-27T00:30:51.611Z,98.02
2019-03-27T00:31:52.579Z,98.22
2019-03-27T00:32:51.558Z,98.43
2019-03-27T00:33:51.585Z,98.43
2019-03-27T00:34:51.536Z,98.48
2019-03-27T00:35:51.600Z,99.00
2019-03-27T00:36:51.526Z,98.54
2019-03-27T00:37:51.611Z,98.79
2019-03-27T00:38:51.492Z,98.69
2019-03-27T00:39:51.524Z,98.58
2019-03-27T00:40:51.472Z,98.48
2019-03-27T00:41:51.571Z,98.38
2019-03-27T00:42:51.454Z,98.38
2019-03-27T00:43:51.448Z,98.48
2019-03-27T00:44:51.426Z,98.52
2019-03-27T00:45:51.470Z,99.04
2019-03-27T00:46:51.417Z,98.94
2019-03-27T00:47:51.476Z,99.15
2019-03-27T00:48:51.380Z,99.41
2019-03-27T00:49:51.388Z,99.35
2019-03-27T00:50:51.359Z,99.77
2019-03-27T00:51:51.432Z,99.87
2019-03-27T00:52:51.336Z,99.99
2019-03-27T00:53:51.418Z,99.98
2019-03-27T00:54:51.316Z,99.66
2019-03-27T00:55:51.325Z,99.92
2019-03-27T00:56:51.303Z,99.92
2019-03-27T00:57:51.339Z,99.66
2019-03-27T00:58:51.272Z,99.77
2019-03-27T00:59:51.354Z,99.77
2019-03-27T01:00:51.250Z,99.99
2019-03-27T01:01:51.295Z,99.98
2019-03-27T01:02:51.229Z,99.99
2019-03-27T01:03:51.278Z,99.99
2019-03-27T01:04:51.208Z,99.99
2019-03-27T01:05:51.293Z,99.98
2019-03-27T01:06:51.255Z,99.99
2019-03-27T01:07:51.204Z,99.98
2019-03-27T01:08:51.161Z,99.77
2019-03-27T01:09:51.217Z,99.99
2019-03-27T01:10:51.152Z,99.77
2019-03-27T01:11:51.156Z,99.99
2019-03-27T01:12:51.124Z,99.99
2019-03-27T01:13:53.118Z,99.99
2019-03-27T01:14:51.096Z,99.99
2019-03-27T01:15:53.094Z,99.99
2019-03-27T01:16:51.086Z,99.99
2019-03-27T01:17:52.108Z,99.99
2019-03-27T01:18:51.050Z,99.99
2019-03-27T01:19:51.085Z,99.99
2019-03-27T01:20:51.028Z,99.99
2019-03-27T01:21:51.033Z,99.99
2019-03-27T01:22:51.012Z,99.99
2019-03-27T01:23:50.999Z,99.99
2019-03-27T01:24:50.987Z,99.99
2019-03-27T01:25:50.978Z,99.99
2019-03-27T01:26:50.974Z,99.99
2019-03-27T01:27:50.956Z,99.94
2019-03-27T01:28:50.946Z,99.99
2019-03-27T01:29:50.934Z,99.99
2019-03-27T01:30:50.919Z,99.90
2019-03-27T01:31:50.925Z,99.94
2019-03-27T01:32:50.902Z,99.99
2019-03-27T01:33:50.942Z,99.99
2019-03-27T01:34:50.875Z,99.99
2019-03-27T01:35:50.870Z,99.69
2019-03-27T01:36:50.867Z,99.69
2019-03-27T01:37:50.850Z,99.58
2019-03-27T01:38:50.832Z,99.79
2019-03-27T01:39:50.828Z,99.07
2019-03-27T01:40:50.809Z,99.17
2019-03-27T01:41:50.821Z,99.07
2019-03-27T01:42:50.805Z,98.96
2019-03-27T01:43:50.782Z,98.86
2019-03-27T01:44:50.766Z,98.75
2019-03-27T01:45:53.236Z,98.34
2019-03-27T01:46:50.771Z,98.44
2019-03-27T01:47:50.737Z,98.86
2019-03-27T01:48:50.723Z,98.96
2019-03-27T01:49:50.716Z,98.96
2019-03-27T01:50:50.701Z,98.34
2019-03-27T01:51:50.706Z,98.86
2019-03-27T01:52:50.679Z,98.24
2019-03-27T01:53:50.705Z,98.34
2019-03-27T01:54:50.661Z,98.24
2019-03-27T01:55:50.653Z,98.44
2019-03-27T01:56:50.659Z,98.44
2019-03-27T01:57:50.633Z,98.55
2019-03-27T01:58:50.613Z,98.44
2019-03-27T01:59:50.606Z,98.44
2019-03-27T02:00:50.602Z,98.50
2019-03-27T02:01:50.586Z,98.30
2019-03-27T02:02:50.584Z,98.55
2019-03-27T02:03:50.568Z,98.61
2019-03-27T02:04:50.551Z,98.86
2019-03-27T02:05:50.540Z,98.82
2019-03-27T02:06:50.526Z,98.44
2019-03-27T02:07:50.534Z,98.19
2019-03-27T02:08:50.504Z,98.30
2019-03-27T02:09:50.498Z,98.13
2019-03-27T02:10:50.482Z,98.19
2019-03-27T02:11:50.477Z,97.99
2019-03-27T02:12:50.477Z,97.67
2019-03-27T02:13:50.454Z,97.47
2019-03-27T02:14:50.445Z,97.78
2019-03-27T02:15:50.433Z,97.16
2019-03-27T02:16:50.418Z,97.26
2019-03-27T02:17:50.423Z,97.47
2019-03-27T02:18:50.400Z,97.99
2019-03-27T02:19:50.388Z,97.88
2019-03-27T02:20:50.379Z,97.78
2019-03-27T02:21:50.368Z,97.99
2019-03-27T02:22:50.362Z,97.83
2019-03-27T02:23:50.344Z,97.26
2019-03-27T02:24:50.335Z,97.26
2019-03-27T02:25:50.330Z,97.47
2019-03-27T02:26:50.313Z,97.88
2019-03-27T02:27:50.312Z,97.31
2019-03-27T02:28:50.288Z,97.36
2019-03-27T02:29:50.345Z,97.57
2019-03-27T02:30:50.271Z,97.78
2019-03-27T02:31:50.261Z,97.78
2019-03-27T02:32:50.262Z,97.26
2019-03-27T02:33:50.235Z,97.26
2019-03-27T02:34:50.258Z,97.57
2019-03-27T02:35:50.216Z,97.52
2019-03-27T02:36:50.206Z,97.57
2019-03-27T02:37:50.213Z,97.67
2019-03-27T02:38:50.179Z,97.47
2019-03-27T02:39:50.183Z,97.47
2019-03-27T02:40:50.160Z,97.47
2019-03-27T02:41:50.150Z,97.57
2019-03-27T02:42:50.152Z,97.16
2019-03-27T02:43:50.131Z,97.26
2019-03-27T02:44:50.111Z,97.16
2019-03-27T02:46:23.245Z,97.26
2019-03-27T02:46:51.090Z,97.06
2019-03-27T02:47:50.097Z,97.06
2019-03-27T02:48:50.074Z,97.47
2019-03-27T02:49:50.066Z,97.36
2019-03-27T02:50:50.044Z,97.26
2019-03-27T02:51:50.083Z,97.16
2019-03-27T02:52:50.035Z,97.16
2019-03-27T02:53:50.017Z,97.26
2019-03-27T02:54:50.001Z,97.22
2019-03-27T02:55:50.004Z,97.36
2019-03-27T02:56:49.988Z,97.26
2019-03-27T02:57:49.988Z,97.06
2019-03-27T02:58:49.959Z,96.85
2019-03-27T02:59:49.954Z,96.85
2019-03-27T03:00:49.939Z,96.75
2019-03-27T03:01:49.937Z,96.95
2019-03-27T03:02:49.925Z,97.10
2019-03-27T03:03:49.915Z,97.36
2019-03-27T03:04:49.899Z,97.47
2019-03-27T03:05:49.893Z,97.06
2019-03-27T03:06:49.878Z,97.26
2019-03-27T03:07:49.900Z,96.95
2019-03-27T03:08:49.852Z,97.00
2019-03-27T03:09:49.849Z,97.26
2019-03-27T03:10:49.848Z,97.47
2019-03-27T03:11:49.825Z,97.26
2019-03-27T03:12:49.825Z,97.57
2019-03-27T03:13:49.801Z,97.47
2019-03-27T03:14:49.786Z,97.67
2019-03-27T03:15:49.781Z,97.47
2019-03-27T03:16:49.776Z,97.16
2019-03-27T03:17:49.776Z,97.16
2019-03-27T03:18:49.749Z,97.31
2019-03-27T03:19:49.734Z,97.47
2019-03-27T03:20:49.720Z,97.36
2019-03-27T03:21:49.720Z,97.36
2019-03-27T03:22:49.723Z,97.31
2019-03-27T03:23:49.695Z,97.67
2019-03-27T03:24:49.676Z,97.47
2019-03-27T03:25:49.715Z,97.47
2019-03-27T03:26:51.214Z,97.16
2019-03-27T03:27:49.653Z,97.36
2019-03-27T03:28:49.645Z,97.06
2019-03-27T03:29:49.628Z,97.10
2019-03-27T03:30:49.618Z,97.20
2019-03-27T03:31:49.619Z,97.06
2019-03-27T03:32:49.595Z,97.31
2019-03-27T03:33:49.600Z,97.26
2019-03-27T03:34:49.568Z,97.47
2019-03-27T03:35:49.565Z,97.47
2019-03-27T03:36:49.544Z,97.62
2019-03-27T03:37:49.539Z,97.47
2019-03-27T03:38:49.537Z,97.47
2019-03-27T03:39:49.520Z,97.16
2019-03-27T03:40:49.502Z,97.06
2019-03-27T03:41:49.497Z,97.36
2019-03-27T03:42:49.478Z,97.41
2019-03-27T03:43:49.488Z,97.47
2019-03-27T03:44:49.458Z,97.26
2019-03-27T03:45:49.450Z,97.47
2019-03-27T03:46:59.744Z,97.47
2019-03-27T03:47:50.421Z,97.36
2019-03-27T03:48:49.428Z,97.26
2019-03-27T03:49:49.402Z,97.26
2019-03-27T03:50:49.398Z,97.26
2019-03-27T03:51:49.381Z,97.26
2019-03-27T03:52:49.375Z,97.26
2019-03-27T03:53:49.376Z,97.47
2019-03-27T03:54:49.353Z,97.26
2019-03-27T03:55:49.341Z,97.57
2019-03-27T03:56:49.331Z,97.36
2019-03-27T03:57:49.316Z,97.26
2019-03-27T03:58:49.335Z,97.01
2019-03-27T03:59:49.291Z,97.01
2019-03-27T04:00:49.297Z,96.91
2019-03-27T04:01:49.270Z,97.42
2019-03-27T04:02:49.264Z,97.26
2019-03-27T04:03:49.258Z,97.22
2019-03-27T04:04:49.244Z,97.36
2019-03-27T04:05:49.238Z,97.36
2019-03-27T04:06:49.220Z,97.47
2019-03-27T04:07:49.206Z,96.80
2019-03-27T04:08:49.213Z,96.80
2019-03-27T04:09:49.191Z,96.80
2019-03-27T04:10:49.301Z,96.70
2019-03-27T04:11:49.161Z,96.29
2019-03-27T04:12:49.156Z,96.70
2019-03-27T04:13:49.151Z,96.29
2019-03-27T04:14:49.141Z,96.49
2019-03-27T04:15:49.134Z,96.08
2019-03-27T04:16:49.110Z,96.39
2019-03-27T04:17:49.101Z,96.59
2019-03-27T04:18:49.101Z,95.77
2019-03-27T04:19:49.077Z,95.98
2019-03-27T04:20:49.068Z,95.87
2019-03-27T04:21:49.062Z,95.87
2019-03-27T04:22:49.047Z,96.03
2019-03-27T04:23:49.042Z,95.46
2019-03-27T04:24:49.026Z,95.36
2019-03-27T04:26:09.258Z,95.36
2019-03-27T04:26:50.001Z,95.77
2019-03-27T04:27:48.993Z,95.62
2019-03-27T04:28:48.988Z,95.87
2019-03-27T04:29:48.971Z,95.98
2019-03-27T04:30:48.954Z,95.77
2019-03-27T04:31:48.952Z,95.77
2019-03-27T04:32:48.935Z,95.52
2019-03-27T04:33:48.941Z,95.42
2019-03-27T04:34:48.910Z,95.46
2019-03-27T04:35:48.905Z,95.62
2019-03-27T04:36:48.888Z,95.36
2019-03-27T04:37:48.882Z,95.67
2019-03-27T04:38:48.877Z,95.67
2019-03-27T04:39:48.872Z,95.56
2019-03-27T04:40:48.845Z,95.67
2019-03-27T04:41:48.839Z,95.77
2019-03-27T04:42:48.821Z,95.87
2019-03-27T04:43:48.832Z,95.87
2019-03-27T04:44:48.808Z,95.62
2019-03-27T04:45:48.797Z,95.67
2019-03-27T04:46:48.779Z,95.67
2019-03-27T04:47:48.774Z,95.62
2019-03-27T04:48:48.773Z,95.94
2019-03-27T04:49:48.754Z,95.94
2019-03-27T04:50:48.738Z,95.98
2019-03-27T04:51:48.730Z,95.56
2019-03-27T04:52:48.712Z,95.77
2019-03-27T04:53:48.719Z,95.77
2019-03-27T04:54:48.697Z,95.36
2019-03-27T04:55:48.687Z,96.08
2019-03-27T04:56:48.674Z,95.87
2019-03-27T04:57:48.688Z,95.87
2019-03-27T04:58:48.660Z,95.87
2019-03-27T04:59:48.643Z,95.87
2019-03-27T05:00:48.630Z,95.87
2019-03-27T05:01:48.622Z,95.77
2019-03-27T05:02:48.614Z,95.77
2019-03-27T05:03:48.627Z,95.87
2019-03-27T05:04:48.583Z,95.98
2019-03-27T05:05:48.576Z,95.67
2019-03-27T05:06:48.559Z,95.98
2019-03-27T05:07:48.553Z,95.98
2019-03-27T05:08:48.557Z,95.36
2019-03-27T05:09:48.531Z,95.56
2019-03-27T05:10:48.516Z,95.36
2019-03-27T05:11:48.508Z,96.08
2019-03-27T05:12:48.493Z,95.56
2019-03-27T05:13:48.506Z,95.98
2019-03-27T05:14:48.472Z,95.87
2019-03-27T05:15:48.466Z,95.67
2019-03-27T05:16:48.451Z,95.42
2019-03-27T05:17:48.444Z,95.36
2019-03-27T05:18:48.444Z,95.15
2019-03-27T05:19:48.425Z,95.25
2019-03-27T05:20:48.411Z,95.21
2019-03-27T05:21:48.400Z,95.25
2019-03-27T05:22:48.385Z,95.67
2019-03-27T05:23:48.395Z,95.67
2019-03-27T05:24:48.366Z,95.56
2019-03-27T05:25:48.361Z,95.67
2019-03-27T05:26:48.341Z,95.52
2019-03-27T05:27:48.335Z,95.87
2019-03-27T05:28:48.343Z,95.77
2019-03-27T05:29:48.318Z,95.67
2019-03-27T05:30:48.298Z,95.62
2019-03-27T05:31:48.297Z,95.77
2019-03-27T05:32:48.277Z,95.52
2019-03-27T05:33:48.268Z,95.21
2019-03-27T05:34:48.272Z,95.42
2019-03-27T05:35:48.247Z,95.73
2019-03-27T05:36:48.242Z,95.73
2019-03-27T05:37:48.229Z,95.83
2019-03-27T05:38:48.211Z,95.73
2019-03-27T05:39:48.219Z,95.62
2019-03-27T05:40:48.188Z,95.73
2019-03-27T05:41:48.181Z,95.00
2019-03-27T05:43:00.064Z,94.69
2019-03-27T05:43:49.155Z,95.10
2019-03-27T05:44:48.165Z,94.85
2019-03-27T05:45:48.134Z,94.79
2019-03-27T05:46:48.199Z,94.59
2019-03-27T05:47:58.864Z,94.90
2019-03-27T05:48:49.099Z,94.79
2019-03-27T05:49:48.110Z,94.79
2019-03-27T05:50:48.086Z,95.10
2019-03-27T05:51:48.074Z,94.90
2019-03-27T05:52:48.084Z,94.85
2019-03-27T05:53:48.061Z,94.75
2019-03-27T05:54:48.052Z,94.85
2019-03-27T05:55:48.027Z,94.54
2019-03-27T05:56:48.049Z,94.44
2019-03-27T05:57:48.006Z,94.85
2019-03-27T05:58:47.995Z,94.75
2019-03-27T05:59:48.000Z,94.65
2019-03-27T06:00:47.968Z,94.19
2019-03-27T06:01:47.975Z,94.19
2019-03-27T06:02:47.950Z,93.37
2019-03-27T06:03:47.939Z,93.62
2019-03-27T06:04:47.948Z,93.26
2019-03-27T06:05:47.925Z,93.37
2019-03-27T06:06:47.902Z,93.16
2019-03-27T06:07:47.896Z,93.37
2019-03-27T06:08:47.889Z,93.26
2019-03-27T06:09:47.885Z,92.95
2019-03-27T06:10:47.866Z,93.37
2019-03-27T06:11:47.862Z,93.53
2019-03-27T06:12:47.835Z,93.47
2019-03-27T06:13:47.845Z,93.12
2019-03-27T06:14:47.830Z,93.26
2019-03-27T06:15:47.838Z,92.70
2019-03-27T06:16:47.801Z,92.33
2019-03-27T06:17:47.790Z,92.08
2019-03-27T06:18:47.774Z,92.08
2019-03-27T06:19:47.777Z,92.08
2019-03-27T06:20:47.749Z,91.94
2019-03-27T06:21:47.742Z,91.16
2019-03-27T06:22:47.733Z,91.42
2019-03-27T06:23:47.738Z,91.01
2019-03-27T06:24:47.735Z,91.52
2019-03-27T06:25:47.699Z,91.11
2019-03-27T06:26:47.683Z,91.22
2019-03-27T06:27:47.686Z,90.91
2019-03-27T06:28:47.667Z,90.66
2019-03-27T06:29:47.677Z,90.25
2019-03-27T06:30:47.638Z,90.04
2019-03-27T06:31:47.646Z,90.49
2019-03-27T06:32:47.625Z,90.76
2019-03-27T06:33:47.617Z,90.86
2019-03-27T06:34:47.615Z,90.66
2019-03-27T06:35:47.595Z,90.66
2019-03-27T06:36:47.570Z,90.76
2019-03-27T06:37:47.568Z,90.35
2019-03-27T06:38:47.558Z,90.00
2019-03-27T06:39:47.554Z,90.25
2019-03-27T06:40:47.527Z,90.10
2019-03-27T06:41:47.522Z,89.32
2019-03-27T06:42:47.505Z,89.94
2019-03-27T06:43:47.505Z,89.11
2019-03-27T06:44:47.495Z,88.82
2019-03-27T06:45:47.498Z,87.75
2019-03-27T06:46:47.476Z,86.68
2019-03-27T06:47:47.454Z,86.06
2019-03-27T06:48:47.441Z,86.21
2019-03-27T06:49:47.446Z,86.52
2019-03-27T06:50:47.420Z,86.45
2019-03-27T06:51:47.444Z,86.66
2019-03-27T06:52:47.401Z,87.79
2019-03-27T06:53:47.395Z,87.69
2019-03-27T06:54:47.385Z,87.65
2019-03-27T06:55:47.373Z,86.82
2019-03-27T06:56:47.361Z,86.72
2019-03-27T06:57:47.355Z,86.41
2019-03-27T06:58:54.359Z,86.79
2019-03-27T06:59:48.337Z,86.37
2019-03-27T07:00:47.309Z,85.65
2019-03-27T07:01:47.304Z,86.27
2019-03-27T07:02:47.302Z,85.07
2019-03-27T07:03:47.282Z,85.59
2019-03-27T07:04:47.276Z,85.44
2019-03-27T07:05:47.257Z,86.37
2019-03-27T07:06:47.248Z,86.27
2019-03-27T07:07:47.238Z,85.75
2019-03-27T07:08:47.225Z,85.86
2019-03-27T07:09:47.253Z,85.75
2019-03-27T07:10:47.198Z,85.38
2019-03-27T07:11:47.205Z,86.06
2019-03-27T07:12:47.181Z,85.44
2019-03-27T07:13:47.171Z,85.55
2019-03-27T07:14:47.169Z,86.16
2019-03-27T07:15:47.147Z,85.75
2019-03-27T07:16:47.134Z,85.75
2019-03-27T07:17:47.126Z,85.20
2019-03-27T07:18:47.114Z,84.52
2019-03-27T07:19:47.125Z,85.51
2019-03-27T07:20:47.096Z,84.38
2019-03-27T07:21:47.086Z,83.25
2019-03-27T07:22:47.068Z,83.72
2019-03-27T07:23:47.060Z,83.78
2019-03-27T07:24:47.061Z,82.92
2019-03-27T07:25:47.051Z,82.27
2019-03-27T07:26:47.028Z,81.14
2019-03-27T07:27:47.017Z,81.79
2019-03-27T07:28:47.001Z,81.69
2019-03-27T07:29:47.019Z,82.20
2019-03-27T07:30:46.982Z,82.00
2019-03-27T07:31:46.975Z,82.20
2019-03-27T07:32:46.959Z,81.90
2019-03-27T07:33:46.949Z,81.69
2019-03-27T07:34:46.950Z,81.69
2019-03-27T07:35:46.926Z,81.38
2019-03-27T07:36:46.911Z,81.48
2019-03-27T07:37:46.912Z,81.79
2019-03-27T07:38:46.889Z,81.90
2019-03-27T07:39:46.892Z,81.90
2019-03-27T07:40:46.865Z,81.69
2019-03-27T07:41:46.868Z,81.55
2019-03-27T07:42:46.847Z,80.77
2019-03-27T07:43:46.847Z,81.18
2019-03-27T07:44:46.858Z,81.24
2019-03-27T07:45:46.824Z,80.83
2019-03-27T07:46:46.800Z,80.93
2019-03-27T07:47:48.217Z,80.73
2019-03-27T07:48:53.888Z,80.83
2019-03-27T07:49:47.779Z,79.63
2019-03-27T07:50:46.753Z,81.07
2019-03-27T07:51:46.747Z,81.69
2019-03-27T07:52:46.731Z,80.87
2019-03-27T07:53:46.724Z,80.52
2019-03-27T07:54:46.718Z,79.70
2019-03-27T07:55:46.715Z,79.66
2019-03-27T07:56:46.683Z,78.91
2019-03-27T07:57:46.677Z,78.60
2019-03-27T07:58:46.663Z,78.77
2019-03-27T07:59:46.765Z,78.77
2019-03-27T08:00:46.655Z,77.54
2019-03-27T08:01:46.634Z,77.95
2019-03-27T08:02:46.624Z,77.20
2019-03-27T08:03:46.612Z,76.95
2019-03-27T08:04:46.596Z,76.78
2019-03-27T08:05:46.600Z,75.18
2019-03-27T08:06:46.574Z,75.14
2019-03-27T08:07:46.569Z,75.62
2019-03-27T08:08:46.555Z,74.43
2019-03-27T08:09:46.544Z,74.46
2019-03-27T08:10:46.554Z,76.24
2019-03-27T08:11:46.530Z,76.27
2019-03-27T08:12:46.506Z,74.49
2019-03-27T08:13:46.551Z,74.90
2019-03-27T08:14:46.484Z,73.91
2019-03-27T08:15:46.494Z,74.63
2019-03-27T08:16:46.465Z,74.11
2019-03-27T08:17:46.460Z,74.11
2019-03-27T08:18:46.440Z,75.45
2019-03-27T08:19:46.434Z,75.07
2019-03-27T08:20:46.436Z,76.27
2019-03-27T08:21:46.412Z,74.08
2019-03-27T08:22:46.396Z,75.17
2019-03-27T08:23:46.415Z,74.19
2019-03-27T08:24:46.372Z,74.60
2019-03-27T08:25:46.399Z,74.19
2019-03-27T08:26:46.374Z,74.39
2019-03-27T08:27:47.099Z,74.56
2019-03-27T08:28:47.093Z,73.54
2019-03-27T08:29:47.101Z,72.62
2019-03-27T08:30:47.095Z,73.27
2019-03-27T08:31:46.368Z,72.86
2019-03-27T08:32:46.339Z,73.98
2019-03-27T08:33:46.384Z,72.75
2019-03-27T08:34:46.271Z,73.88
2019-03-27T08:35:47.108Z,73.57
2019-03-27T08:36:46.239Z,73.78
2019-03-27T08:37:47.330Z,74.19
2019-03-27T08:38:46.216Z,73.88
2019-03-27T08:39:47.215Z,74.32
2019-03-27T08:40:46.214Z,74.29
2019-03-27T08:41:46.230Z,74.43
2019-03-27T08:42:46.172Z,74.39
2019-03-27T08:43:46.249Z,74.29
2019-03-27T08:44:46.157Z,74.19
2019-03-27T08:45:48.231Z,74.60
2019-03-27T08:46:46.126Z,74.35
2019-03-27T08:47:47.199Z,73.40
2019-03-27T08:48:46.105Z,72.79
2019-03-27T08:49:47.275Z,71.49
2019-03-27T08:50:46.094Z,73.23
2019-03-27T08:51:46.093Z,73.20
2019-03-27T08:52:46.061Z,72.04
2019-03-27T08:53:46.109Z,71.39
2019-03-27T08:54:46.039Z,70.23
2019-03-27T08:55:46.148Z,70.51
2019-03-27T08:56:46.016Z,69.46
2019-03-27T08:57:46.032Z,68.77
2019-03-27T08:58:45.992Z,67.24
2019-03-27T08:59:46.058Z,68.30
2019-03-27T09:00:45.984Z,68.60
2019-03-27T09:01:46.060Z,69.49
2019-03-27T09:02:45.951Z,67.85
2019-03-27T09:03:45.971Z,66.64
2019-03-27T09:04:45.927Z,65.08
2019-03-27T09:05:46.013Z,65.33
2019-03-27T09:06:45.907Z,62.98
2019-03-27T09:07:45.999Z,64.48
2019-03-27T09:08:45.887Z,62.62
2019-03-27T09:09:45.911Z,63.23
2019-03-27T09:10:45.887Z,62.21
2019-03-27T09:11:45.923Z,61.43
2019-03-27T09:12:45.842Z,62.52
2019-03-27T09:13:45.937Z,60.60
2019-03-27T09:14:45.814Z,59.46
2019-03-27T09:15:45.849Z,59.41
2019-03-27T09:16:45.803Z,59.91
2019-03-27T09:17:45.865Z,62.71
2019-03-27T09:18:45.769Z,62.40
2019-03-27T09:19:45.773Z,62.30
2019-03-27T09:20:45.746Z,62.63
2019-03-27T09:21:45.819Z,64.06
2019-03-27T09:22:45.722Z,64.20
2019-03-27T09:23:46.128Z,64.57
2019-03-27T09:24:45.702Z,64.67
2019-03-27T09:25:45.715Z,64.54
2019-03-27T09:26:45.691Z,63.46
2019-03-27T09:27:45.728Z,60.61
2019-03-27T09:28:45.659Z,61.52
2019-03-27T09:29:45.743Z,62.94
2019-03-27T09:30:45.638Z,63.24
2019-03-27T09:31:49.161Z,64.29
2019-03-27T09:32:45.614Z,64.84
2019-03-27T09:33:52.117Z,64.78
2019-03-27T09:34:45.591Z,65.05
2019-03-27T09:35:46.627Z,63.70
2019-03-27T09:36:45.580Z,63.06
2019-03-27T09:37:45.590Z,62.96
2019-03-27T09:38:45.545Z,61.43
2019-03-27T09:39:45.604Z,62.72
2019-03-27T09:40:45.524Z,62.49
2019-03-27T09:41:45.548Z,58.96
2019-03-27T09:42:45.505Z,60.56
2019-03-27T09:43:45.529Z,60.25
2019-03-27T09:44:45.479Z,61.07
2019-03-27T09:45:45.542Z,60.10
2019-03-27T09:46:45.469Z,57.12
2019-03-27T09:47:45.557Z,59.69
2019-03-27T09:48:45.441Z,59.08
2019-03-27T09:49:49.813Z,60.20
2019-03-27T09:50:45.416Z,58.62
2019-03-27T09:51:45.514Z,59.18
2019-03-27T09:52:45.392Z,58.70
2019-03-27T09:53:45.392Z,59.92
2019-03-27T09:54:45.370Z,60.53
2019-03-27T09:55:45.406Z,58.67
2019-03-27T09:56:45.366Z,58.92
2019-03-27T09:57:45.342Z,56.51
2019-03-27T09:58:45.327Z,57.55
2019-03-27T09:59:45.335Z,57.71
2019-03-27T10:00:45.303Z,59.94
2019-03-27T10:01:45.376Z,58.92
2019-03-27T10:02:45.282Z,57.93
2019-03-27T10:03:45.359Z,57.97
2019-03-27T10:04:45.265Z,57.53
2019-03-27T10:05:45.271Z,55.47
2019-03-27T10:06:45.256Z,53.22
2019-03-27T10:07:45.283Z,52.39
2019-03-27T10:08:45.215Z,51.25
2019-03-27T10:09:45.297Z,52.06
2019-03-27T10:10:45.195Z,48.28
2019-03-27T10:11:45.239Z,49.42
2019-03-27T10:12:45.171Z,48.21
2019-03-27T10:13:46.248Z,48.36
2019-03-27T10:14:47.542Z,49.55
2019-03-27T10:15:45.237Z,53.05
2019-03-27T10:16:45.139Z,52.86
2019-03-27T10:17:45.154Z,53.58
2019-03-27T10:18:47.464Z,53.27
2019-03-27T10:19:47.110Z,55.76
2019-03-27T10:20:45.081Z,55.19
2019-03-27T10:21:45.103Z,52.33
2019-03-27T10:22:45.062Z,53.30
2019-03-27T10:23:45.086Z,52.51
2019-03-27T10:24:45.041Z,52.64
2019-03-27T10:25:45.101Z,52.46
2019-03-27T10:26:45.027Z,50.12
2019-03-27T10:27:45.113Z,50.29
2019-03-27T10:28:45.002Z,51.62
2019-03-27T10:29:45.025Z,51.42
2019-03-27T10:30:44.967Z,51.81
2019-03-27T10:31:45.067Z,52.39
2019-03-27T10:32:44.947Z,50.80
2019-03-27T10:33:44.952Z,49.84
2019-03-27T10:34:44.929Z,50.30
2019-03-27T10:35:44.964Z,49.35
2019-03-27T10:36:44.932Z,48.11
2019-03-27T10:37:44.977Z,46.91
2019-03-27T10:38:44.880Z,47.13
2019-03-27T10:39:44.889Z,46.77
2019-03-27T10:40:44.858Z,49.96
2019-03-27T10:41:44.903Z,49.04
2019-03-27T10:42:44.847Z,49.94
2019-03-27T10:43:44.916Z,49.89
2019-03-27T10:44:44.813Z,49.16
2019-03-27T10:45:44.827Z,50.15
2019-03-27T10:46:44.789Z,49.01
2019-03-27T10:47:44.871Z,50.22
2019-03-27T10:48:52.379Z,48.50
2019-03-27T10:49:45.759Z,50.35
2019-03-27T10:50:44.760Z,48.05
2019-03-27T10:51:44.730Z,50.18
2019-03-27T10:52:44.803Z,52.64
2019-03-27T10:53:44.708Z,51.73
2019-03-27T10:54:44.787Z,52.15
2019-03-27T10:55:44.689Z,52.59
2019-03-27T10:56:44.699Z,53.50
2019-03-27T10:57:44.682Z,54.51
2019-03-27T10:58:44.712Z,55.22
2019-03-27T10:59:44.644Z,54.08
2019-03-27T11:01:07.445Z,53.14
2019-03-27T11:01:44.621Z,53.45
2019-03-27T11:02:44.667Z,52.86
2019-03-27T11:03:44.598Z,51.95
2019-03-27T11:04:44.653Z,50.48
2019-03-27T11:05:44.574Z,52.71
2019-03-27T11:06:44.664Z,52.48
2019-03-27T11:07:44.565Z,51.95
2019-03-27T11:08:44.578Z,51.42
2019-03-27T11:09:44.532Z,51.57
2019-03-27T11:10:44.589Z,50.92
2019-03-27T11:11:44.507Z,51.62
2019-03-27T11:12:44.529Z,50.26
2019-03-27T11:13:44.486Z,50.34
2019-03-27T11:14:44.515Z,48.03
2019-03-27T11:15:44.463Z,48.77
2019-03-27T11:16:44.527Z,50.49
2019-03-27T11:17:44.452Z,48.99
2019-03-27T11:18:44.542Z,50.18
2019-03-27T11:19:44.422Z,48.14
2019-03-27T11:20:45.427Z,49.27
2019-03-27T11:21:44.397Z,49.19
2019-03-27T11:22:44.400Z,48.90
2019-03-27T11:23:44.375Z,49.42
2019-03-27T11:24:44.371Z,50.31
2019-03-27T11:25:44.350Z,50.21
2019-03-27T11:26:44.345Z,49.98
2019-03-27T11:27:44.341Z,48.59
2019-03-27T11:28:44.324Z,49.40
2019-03-27T11:29:44.306Z,49.40
2019-03-27T11:30:44.319Z,48.71
2019-03-27T11:31:44.284Z,50.76
2019-03-27T11:32:44.290Z,51.39
2019-03-27T11:33:44.265Z,52.13
2019-03-27T11:34:44.258Z,52.86
2019-03-27T11:35:44.240Z,51.85
2019-03-27T11:36:44.241Z,51.01
2019-03-27T11:37:44.228Z,52.33
2019-03-27T11:38:44.212Z,51.82
2019-03-27T11:39:44.198Z,50.13
2019-03-27T11:40:44.191Z,49.10
2019-03-27T11:41:44.177Z,48.46
2019-03-27T11:42:44.177Z,48.95
2019-03-27T11:43:54.211Z,47.91
2019-03-27T11:44:45.139Z,49.02
2019-03-27T11:45:44.199Z,46.91
2019-03-27T11:46:44.116Z,48.85
2019-03-27T11:47:44.125Z,48.59
2019-03-27T11:48:44.096Z,49.90
2019-03-27T11:49:44.089Z,48.99
2019-03-27T11:50:45.542Z,50.11
2019-03-27T11:51:44.068Z,48.79
2019-03-27T11:52:44.063Z,49.10
2019-03-27T11:53:44.043Z,48.49
2019-03-27T11:54:44.027Z,49.10
2019-03-27T11:55:44.022Z,49.90
2019-03-27T11:56:44.011Z,50.94
2019-03-27T11:57:44.013Z,50.63
2019-03-27T11:58:43.987Z,51.32
2019-03-27T11:59:53.720Z,50.41
2019-03-27T12:00:54.412Z,48.99
2019-03-27T12:01:44.952Z,49.80
2019-03-27T12:02:43.971Z,50.21
2019-03-27T12:03:43.929Z,50.49
2019-03-27T12:04:43.926Z,49.52
2019-03-27T12:05:45.754Z,50.84
2019-03-27T12:06:43.899Z,51.25
2019-03-27T12:07:43.882Z,51.14
2019-03-27T12:08:43.899Z,50.76
2019-03-27T12:09:43.861Z,53.02
2019-03-27T12:10:43.856Z,52.89
2019-03-27T12:11:43.839Z,52.61
2019-03-27T12:12:43.831Z,53.06
2019-03-27T12:13:43.827Z,52.44
2019-03-27T12:14:43.808Z,54.28
2019-03-27T12:15:43.805Z,53.25
2019-03-27T12:16:43.789Z,52.31
2019-03-27T12:17:43.771Z,52.53
2019-03-27T12:18:43.779Z,52.64
2019-03-27T12:19:43.749Z,53.06
2019-03-27T12:20:57.708Z,55.20
2019-03-27T12:21:44.724Z,53.30
2019-03-27T12:22:56.990Z,55.43
2019-03-27T12:23:44.715Z,55.38
2019-03-27T12:24:43.698Z,54.26
2019-03-27T12:25:43.682Z,55.63
2019-03-27T12:26:43.676Z,56.65
2019-03-27T12:27:43.660Z,56.27
2019-03-27T12:28:43.670Z,57.67
2019-03-27T12:29:43.639Z,57.64
2019-03-27T12:30:43.632Z,56.73
2019-03-27T12:31:43.622Z,55.99
2019-03-27T12:32:43.613Z,56.70
2019-03-27T12:33:43.609Z,57.08
2019-03-27T12:34:43.585Z,55.86
2019-03-27T12:35:43.572Z,56.26
2019-03-27T12:36:43.562Z,56.57
2019-03-27T12:37:43.549Z,55.55
2019-03-27T12:38:43.552Z,55.18
2019-03-27T12:39:43.525Z,55.20
2019-03-27T12:40:43.517Z,56.75
2019-03-27T12:41:43.503Z,56.04
2019-03-27T12:42:43.494Z,56.60
2019-03-27T12:43:43.490Z,54.36
2019-03-27T12:44:43.472Z,55.83
2019-03-27T12:45:43.458Z,54.33
2019-03-27T12:46:43.449Z,55.02
2019-03-27T12:47:43.434Z,54.18
2019-03-27T12:48:43.438Z,53.45
2019-03-27T12:49:43.411Z,55.45
2019-03-27T12:50:44.566Z,54.16
2019-03-27T12:51:43.389Z,54.57
2019-03-27T12:52:43.380Z,55.68